createdAt,value
2018-07-14T00:00:59.638Z,99.15
2018-07-14T00:01:59.637Z,99.44
2018-07-14T00:02:59.634Z,99.34
2018-07-14T00:03:59.642Z,99.25
2018-07-14T00:04:59.660Z,98.77
2018-07-14T00:05:59.641Z,98.67
2018-07-14T00:06:59.650Z,98.48
2018-07-14T00:07:59.664Z,99.05
2018-07-14T00:08:59.669Z,98.86
2018-07-14T00:09:59.671Z,99.05
2018-07-14T00:10:59.667Z,98.00
2018-07-14T00:11:59.677Z,98.10
2018-07-14T00:12:59.672Z,98.00
2018-07-14T00:13:59.676Z,99.15
2018-07-14T00:14:59.674Z,98.00
2018-07-14T00:15:59.705Z,98.38
2018-07-14T00:16:59.688Z,98.48
2018-07-14T00:19:59.696Z,97.81
2018-07-14T00:20:59.711Z,98.29
2018-07-14T00:22:00.800Z,98.10
2018-07-14T00:22:59.794Z,97.86
2018-07-14T00:23:59.720Z,97.52
2018-07-14T00:24:59.715Z,97.33
2018-07-14T00:25:59.705Z,96.61
2018-07-14T00:26:59.710Z,97.19
2018-07-14T00:27:59.711Z,96.99
2018-07-14T00:28:59.730Z,96.99
2018-07-14T00:29:59.734Z,96.51
2018-07-14T00:30:59.717Z,96.61
2018-07-14T00:31:59.722Z,95.94
2018-07-14T00:32:59.735Z,96.03
2018-07-14T00:33:59.741Z,96.80
2018-07-14T00:34:59.728Z,96.32
2018-07-14T00:35:59.758Z,96.32
2018-07-14T00:36:59.738Z,95.84
2018-07-14T00:37:59.774Z,95.75
2018-07-14T00:38:59.763Z,95.84
2018-07-14T00:39:59.758Z,95.94
2018-07-14T00:40:59.745Z,95.65
2018-07-14T00:41:59.755Z,94.98
2018-07-14T00:42:59.745Z,94.21
2018-07-14T00:43:59.765Z,94.40
2018-07-14T00:44:59.776Z,94.31
2018-07-14T00:45:59.776Z,94.49
2018-07-14T00:46:59.788Z,94.31
2018-07-14T00:47:59.765Z,94.59
2018-07-14T00:48:59.769Z,94.59
2018-07-14T00:49:59.786Z,94.59
2018-07-14T00:50:59.778Z,94.59
2018-07-14T00:51:59.787Z,94.69
2018-07-14T00:52:59.784Z,94.59
2018-07-14T00:53:59.782Z,94.49
2018-07-14T00:54:59.782Z,94.35
2018-07-14T00:55:59.787Z,94.79
2018-07-14T00:56:59.802Z,94.31
2018-07-14T00:57:59.791Z,94.35
2018-07-14T00:58:59.802Z,94.35
2018-07-14T00:59:59.805Z,94.49
2018-07-14T01:00:59.807Z,94.17
2018-07-14T01:01:59.843Z,94.45
2018-07-14T01:02:59.805Z,95.21
2018-07-14T01:03:59.827Z,94.69
2018-07-14T01:04:59.829Z,95.03
2018-07-14T01:05:59.843Z,95.03
2018-07-14T01:06:59.829Z,95.12
2018-07-14T01:07:59.824Z,95.03
2018-07-14T01:08:59.839Z,94.93
2018-07-14T01:09:59.832Z,94.64
2018-07-14T01:10:59.827Z,94.54
2018-07-14T01:11:59.837Z,95.03
2018-07-14T01:12:59.843Z,94.93
2018-07-14T01:14:00.310Z,95.98
2018-07-14T01:14:59.852Z,95.31
2018-07-14T01:15:59.877Z,95.79
2018-07-14T01:16:59.854Z,95.70
2018-07-14T01:17:59.850Z,94.64
2018-07-14T01:18:59.865Z,94.74
2018-07-14T01:19:59.859Z,94.64
2018-07-14T01:20:59.866Z,94.74
2018-07-14T01:21:59.867Z,94.35
2018-07-14T01:22:59.882Z,94.17
2018-07-14T01:23:59.869Z,94.35
2018-07-14T01:24:59.874Z,94.54
2018-07-14T01:25:59.879Z,94.45
2018-07-14T01:27:00.815Z,94.54
2018-07-14T01:27:59.884Z,94.17
2018-07-14T01:28:59.893Z,94.17
2018-07-14T01:29:59.900Z,94.17
2018-07-14T01:30:59.890Z,94.17
2018-07-14T01:31:59.896Z,94.07
2018-07-14T01:32:59.933Z,93.59
2018-07-14T01:33:59.895Z,93.78
2018-07-14T01:34:59.917Z,93.59
2018-07-14T01:35:59.909Z,93.68
2018-07-14T01:36:59.906Z,93.49
2018-07-14T01:37:59.927Z,93.78
2018-07-14T01:38:59.922Z,94.17
2018-07-14T01:39:59.933Z,94.31
2018-07-14T01:40:59.914Z,94.64
2018-07-14T01:41:59.920Z,94.17
2018-07-14T01:42:59.925Z,94.12
2018-07-14T01:43:59.925Z,94.31
2018-07-14T01:44:59.928Z,93.26
2018-07-14T01:45:59.918Z,93.44
2018-07-14T01:46:59.965Z,93.54
2018-07-14T01:47:59.946Z,92.97
2018-07-14T01:48:59.938Z,93.54
2018-07-14T01:49:59.948Z,93.44
2018-07-14T01:50:59.939Z,93.54
2018-07-14T01:51:59.947Z,93.26
2018-07-14T01:52:59.955Z,93.35
2018-07-14T01:53:59.952Z,93.44
2018-07-14T01:54:59.955Z,93.26
2018-07-14T01:56:00.828Z,93.06
2018-07-14T01:56:59.962Z,92.87
2018-07-14T01:57:59.967Z,92.58
2018-07-14T01:58:59.964Z,92.77
2018-07-14T01:59:59.966Z,92.97
2018-07-14T02:00:59.973Z,93.26
2018-07-14T02:01:59.996Z,93.44
2018-07-14T02:02:59.971Z,92.87
2018-07-14T02:03:59.983Z,92.77
2018-07-14T02:04:59.983Z,93.54
2018-07-14T02:05:59.973Z,93.26
2018-07-14T02:06:59.980Z,93.16
2018-07-14T02:08:00.058Z,92.87
2018-07-14T02:09:00.045Z,92.97
2018-07-14T02:09:59.994Z,92.68
2018-07-14T02:11:00.037Z,93.06
2018-07-14T02:12:00.006Z,93.16
2018-07-14T02:13:00.008Z,92.77
2018-07-14T02:14:00.025Z,93.16
2018-07-14T02:15:00.027Z,93.16
2018-07-14T02:16:00.018Z,92.68
2018-07-14T02:17:00.020Z,92.97
2018-07-14T02:18:00.835Z,93.26
2018-07-14T02:19:00.035Z,93.16
2018-07-14T02:20:00.024Z,93.35
2018-07-14T02:21:00.031Z,92.87
2018-07-14T02:22:00.027Z,92.92
2018-07-14T02:23:00.033Z,93.16
2018-07-14T02:24:00.033Z,92.97
2018-07-14T02:25:00.048Z,92.73
2018-07-14T02:26:00.042Z,92.82
2018-07-14T02:27:00.067Z,92.73
2018-07-14T02:28:00.042Z,92.06
2018-07-14T02:29:00.036Z,92.63
2018-07-14T02:30:00.065Z,92.63
2018-07-14T02:31:00.842Z,92.82
2018-07-14T02:32:00.057Z,92.82
2018-07-14T02:33:00.061Z,92.68
2018-07-14T02:34:00.076Z,92.63
2018-07-14T02:35:00.080Z,92.25
2018-07-14T02:36:00.080Z,92.82
2018-07-14T02:37:00.070Z,93.21
2018-07-14T02:38:00.074Z,92.92
2018-07-14T02:39:00.070Z,92.73
2018-07-14T02:40:00.085Z,93.59
2018-07-14T02:41:00.078Z,93.21
2018-07-14T02:42:00.084Z,93.30
2018-07-14T02:43:00.077Z,93.11
2018-07-14T02:44:00.101Z,92.73
2018-07-14T02:45:00.089Z,92.92
2018-07-14T02:46:00.084Z,92.92
2018-07-14T02:47:00.097Z,92.92
2018-07-14T02:48:00.122Z,92.44
2018-07-14T02:49:00.096Z,92.44
2018-07-14T02:50:00.111Z,92.82
2018-07-14T02:51:00.115Z,92.73
2018-07-14T02:52:00.115Z,92.44
2018-07-14T02:53:00.113Z,92.25
2018-07-14T02:54:00.114Z,92.44
2018-07-14T02:55:00.119Z,92.44
2018-07-14T02:56:00.129Z,92.82
2018-07-14T02:57:00.116Z,92.92
2018-07-14T02:58:00.148Z,92.73
2018-07-14T02:59:00.127Z,92.44
2018-07-14T03:00:00.127Z,92.54
2018-07-14T03:01:00.127Z,93.02
2018-07-14T03:02:00.143Z,93.59
2018-07-14T03:03:00.142Z,93.30
2018-07-14T03:04:00.141Z,93.59
2018-07-14T03:05:00.184Z,93.30
2018-07-14T03:06:00.147Z,92.82
2018-07-14T03:07:00.153Z,93.11
2018-07-14T03:08:00.157Z,92.63
2018-07-14T03:09:00.165Z,92.82
2018-07-14T03:10:00.163Z,93.11
2018-07-14T03:11:00.178Z,93.21
2018-07-14T03:12:00.226Z,93.21
2018-07-14T03:13:00.309Z,93.40
2018-07-14T03:14:00.172Z,93.30
2018-07-14T03:15:00.182Z,92.73
2018-07-14T03:16:00.176Z,93.11
2018-07-14T03:17:00.170Z,92.82
2018-07-14T03:18:00.179Z,92.82
2018-07-14T03:19:00.173Z,93.02
2018-07-14T03:20:00.184Z,92.63
2018-07-14T03:21:00.186Z,92.82
2018-07-14T03:22:00.212Z,93.21
2018-07-14T03:23:00.182Z,93.30
2018-07-14T03:24:00.201Z,93.30
2018-07-14T03:25:00.196Z,93.21
2018-07-14T03:26:00.192Z,93.49
2018-07-14T03:27:00.202Z,93.78
2018-07-14T03:28:00.217Z,94.26
2018-07-14T03:29:00.203Z,94.17
2018-07-14T03:30:00.207Z,94.07
2018-07-14T03:31:00.210Z,94.07
2018-07-14T03:32:00.208Z,94.35
2018-07-14T03:33:00.213Z,94.55
2018-07-14T03:34:00.219Z,94.45
2018-07-14T03:35:00.215Z,94.64
2018-07-14T03:36:00.223Z,94.93
2018-07-14T03:37:00.224Z,94.93
2018-07-14T03:38:00.220Z,94.55
2018-07-14T03:39:00.229Z,94.93
2018-07-14T03:40:00.246Z,94.26
2018-07-14T03:41:00.235Z,94.64
2018-07-14T03:42:00.317Z,94.45
2018-07-14T03:43:00.285Z,94.93
2018-07-14T03:44:00.259Z,94.84
2018-07-14T03:45:00.264Z,95.22
2018-07-14T03:46:00.244Z,95.60
2018-07-14T03:47:00.256Z,95.51
2018-07-14T03:48:00.259Z,95.98
2018-07-14T03:49:00.261Z,95.70
2018-07-14T03:50:00.252Z,95.41
2018-07-14T03:51:00.272Z,95.41
2018-07-14T03:52:00.284Z,96.37
2018-07-14T03:53:00.868Z,96.37
2018-07-14T03:54:00.274Z,96.47
2018-07-14T03:55:00.284Z,96.80
2018-07-14T03:56:00.273Z,96.89
2018-07-14T03:57:00.366Z,97.18
2018-07-14T03:58:00.276Z,98.10
2018-07-14T03:59:00.291Z,98.19
2018-07-14T04:00:00.288Z,98.19
2018-07-14T04:01:00.289Z,98.10
2018-07-14T04:02:00.287Z,98.14
2018-07-14T04:03:00.287Z,98.24
2018-07-14T04:04:00.291Z,98.33
2018-07-14T04:05:00.311Z,98.91
2018-07-14T04:06:00.304Z,98.43
2018-07-14T04:07:00.294Z,98.62
2018-07-14T04:08:00.301Z,98.43
2018-07-14T04:09:00.306Z,98.62
2018-07-14T04:10:00.323Z,98.43
2018-07-14T04:11:00.320Z,98.28
2018-07-14T04:12:00.316Z,98.52
2018-07-14T04:13:00.317Z,98.57
2018-07-14T04:14:00.326Z,98.81
2018-07-14T04:15:00.323Z,98.81
2018-07-14T04:16:00.324Z,98.81
2018-07-14T04:17:00.330Z,99.10
2018-07-14T04:18:00.326Z,99.10
2018-07-14T04:19:00.372Z,99.68
2018-07-14T04:20:00.329Z,99.77
2018-07-14T04:21:00.352Z,99.96
2018-07-14T04:22:00.339Z,99.58
2018-07-14T04:23:00.355Z,99.99
2018-07-14T04:24:00.344Z,99.99
2018-07-14T04:25:00.349Z,99.99
2018-07-14T04:26:00.354Z,99.99
2018-07-14T04:27:00.352Z,99.99
2018-07-14T04:28:00.362Z,99.99
2018-07-14T04:29:00.367Z,99.99
2018-07-14T04:30:00.358Z,99.99
2018-07-14T04:31:00.371Z,99.99
2018-07-14T04:32:00.409Z,99.99
2018-07-14T04:33:00.399Z,99.99
2018-07-14T04:34:00.391Z,99.99
2018-07-14T04:35:00.367Z,99.99
2018-07-14T04:36:00.374Z,99.99
2018-07-14T04:37:00.381Z,99.99
2018-07-14T04:38:00.384Z,99.99
2018-07-14T04:39:00.403Z,99.99
2018-07-14T04:40:00.393Z,99.99
2018-07-14T04:41:00.403Z,99.99
2018-07-14T04:42:00.397Z,99.99
2018-07-14T04:43:00.391Z,99.99
2018-07-14T04:44:00.394Z,99.99
2018-07-14T04:45:00.394Z,99.99
2018-07-14T04:46:00.409Z,99.99
2018-07-14T04:47:00.409Z,99.99
2018-07-14T04:48:00.428Z,99.99
2018-07-14T04:49:00.410Z,99.99
2018-07-14T04:50:00.415Z,99.99
2018-07-14T04:51:00.423Z,99.99
2018-07-14T04:52:00.425Z,99.99
2018-07-14T04:53:00.471Z,99.99
2018-07-14T04:54:00.431Z,99.99
2018-07-14T04:55:00.431Z,99.99
2018-07-14T04:56:00.425Z,99.99
2018-07-14T04:57:00.433Z,99.99
2018-07-14T04:58:00.462Z,99.99
2018-07-14T04:59:00.437Z,99.99
2018-07-14T05:00:00.449Z,99.99
2018-07-14T05:01:00.454Z,99.99
2018-07-14T05:02:00.450Z,99.99
2018-07-14T05:03:00.465Z,99.99
2018-07-14T05:04:00.447Z,99.99
2018-07-14T05:05:00.458Z,99.99
2018-07-14T05:06:00.480Z,99.99
2018-07-14T05:07:00.462Z,99.99
2018-07-14T05:08:00.461Z,99.99
2018-07-14T05:09:00.460Z,99.99
2018-07-14T05:10:01.396Z,99.99
2018-07-14T05:11:00.471Z,99.99
2018-07-14T05:12:00.476Z,99.99
2018-07-14T05:13:00.474Z,99.99
2018-07-14T05:14:00.486Z,99.99
2018-07-14T05:15:00.483Z,99.99
2018-07-14T05:16:00.489Z,99.99
2018-07-14T05:17:00.481Z,99.99
2018-07-14T05:18:00.509Z,99.99
2018-07-14T05:19:00.498Z,99.99
2018-07-14T05:20:00.493Z,99.99
2018-07-14T05:21:00.502Z,99.99
2018-07-14T05:22:00.490Z,99.99
2018-07-14T05:23:00.512Z,99.99
2018-07-14T05:24:00.512Z,99.99
2018-07-14T05:25:00.531Z,99.99
2018-07-14T05:26:00.508Z,99.99
2018-07-14T05:27:00.508Z,99.99
2018-07-14T05:28:00.617Z,99.99
2018-07-14T05:29:00.527Z,99.99
2018-07-14T05:30:00.522Z,99.99
2018-07-14T05:31:00.530Z,99.99
2018-07-14T05:32:00.530Z,99.99
2018-07-14T05:33:00.556Z,99.99
2018-07-14T05:34:00.545Z,99.99
2018-07-14T05:35:00.535Z,99.99
2018-07-14T05:36:00.567Z,99.99
2018-07-14T05:37:00.539Z,99.99
2018-07-14T05:38:00.540Z,99.99
2018-07-14T05:39:00.554Z,99.99
2018-07-14T05:40:00.552Z,99.99
2018-07-14T05:41:00.555Z,99.99
2018-07-14T05:42:00.576Z,99.99
2018-07-14T05:43:00.569Z,99.99
2018-07-14T05:44:00.614Z,99.99
2018-07-14T05:45:00.566Z,99.99
2018-07-14T05:46:00.572Z,99.99
2018-07-14T05:47:00.575Z,99.31
2018-07-14T05:48:00.582Z,98.35
2018-07-14T05:49:00.582Z,98.83
2018-07-14T05:50:00.598Z,96.94
2018-07-14T05:51:00.592Z,96.02
2018-07-14T05:52:00.651Z,94.67
2018-07-14T05:53:00.601Z,95.35
2018-07-14T05:54:00.607Z,96.94
2018-07-14T05:55:00.623Z,99.26
2018-07-14T05:56:00.620Z,99.65
2018-07-14T05:57:00.623Z,96.89
2018-07-14T05:58:00.638Z,96.61
2018-07-14T05:59:00.640Z,95.98
2018-07-14T06:00:00.646Z,93.75
2018-07-14T06:01:00.639Z,95.68
2018-07-14T06:02:00.651Z,96.03
2018-07-14T06:03:00.647Z,93.17
2018-07-14T06:04:00.697Z,91.52
2018-07-14T06:05:00.674Z,90.21
2018-07-14T06:06:00.675Z,91.58
2018-07-14T06:07:00.671Z,90.94
2018-07-14T06:08:00.674Z,89.44
2018-07-14T06:09:00.682Z,89.49
2018-07-14T06:10:00.694Z,90.07
2018-07-14T06:11:00.693Z,89.69
2018-07-14T06:12:00.734Z,90.84
2018-07-14T06:13:00.737Z,91.42
2018-07-14T06:14:00.723Z,91.96
2018-07-14T06:15:00.721Z,93.32
2018-07-14T06:16:00.733Z,93.80
2018-07-14T06:17:00.738Z,94.33
2018-07-14T06:18:00.765Z,92.54
2018-07-14T06:19:00.752Z,91.42
2018-07-14T06:20:00.768Z,91.28
2018-07-14T06:21:00.765Z,91.67
2018-07-14T06:22:00.762Z,91.38
2018-07-14T06:23:00.773Z,93.02
2018-07-14T06:24:00.780Z,91.72
2018-07-14T06:25:00.784Z,90.46
2018-07-14T06:26:00.789Z,88.81
2018-07-14T06:27:00.795Z,87.01
2018-07-14T06:28:00.816Z,86.23
2018-07-14T06:29:00.833Z,86.72
2018-07-14T06:30:00.817Z,85.99
2018-07-14T06:31:00.817Z,85.54
2018-07-14T06:32:00.920Z,84.30
2018-07-14T06:33:00.855Z,85.17
2018-07-14T06:34:00.854Z,84.78
2018-07-14T06:35:00.853Z,84.58
2018-07-14T06:36:00.862Z,83.91
2018-07-14T06:37:00.880Z,83.12
2018-07-14T06:38:00.879Z,83.12
2018-07-14T06:39:00.891Z,81.70
2018-07-14T06:40:00.891Z,81.41
2018-07-14T06:41:00.916Z,81.31
2018-07-14T06:42:00.902Z,80.77
2018-07-14T06:43:00.959Z,77.74
2018-07-14T06:44:00.919Z,77.53
2018-07-14T06:45:00.934Z,76.84
2018-07-14T06:46:00.954Z,75.97
2018-07-14T06:47:00.961Z,75.52
2018-07-14T06:48:00.957Z,74.45
2018-07-14T06:49:01.436Z,75.35
2018-07-14T06:50:00.977Z,75.58
2018-07-14T06:51:00.984Z,76.48
2018-07-14T06:52:01.007Z,76.12
2018-07-14T06:53:01.002Z,76.67
2018-07-14T06:54:01.009Z,75.93
2018-07-14T06:55:01.020Z,76.22
2018-07-14T06:56:01.029Z,76.38
2018-07-14T06:57:01.036Z,77.00
2018-07-14T06:58:01.047Z,76.42
2018-07-14T06:59:01.098Z,76.87
2018-07-14T07:00:01.073Z,77.70
2018-07-14T07:01:01.082Z,77.86
2018-07-14T07:02:01.093Z,78.09
2018-07-14T07:03:01.113Z,76.97
2018-07-14T07:04:01.107Z,77.06
2018-07-14T07:05:01.142Z,78.17
2018-07-14T07:06:01.130Z,79.66
2018-07-14T07:07:01.147Z,79.45
2018-07-14T07:08:01.168Z,79.30
2018-07-14T07:09:01.160Z,77.15
2018-07-14T07:10:01.203Z,77.35
2018-07-14T07:11:01.182Z,77.12
2018-07-14T07:12:01.232Z,78.28
2018-07-14T07:13:01.212Z,78.81
2018-07-14T07:14:01.218Z,77.29
2018-07-14T07:15:01.227Z,75.78
2018-07-14T07:16:01.240Z,75.07
2018-07-14T07:17:01.247Z,73.86
2018-07-14T07:18:01.254Z,74.99
2018-07-14T07:19:01.290Z,75.84
2018-07-14T07:20:01.284Z,76.55
2018-07-14T07:21:01.297Z,75.54
2018-07-14T07:22:01.317Z,74.93
2018-07-14T07:23:01.324Z,73.38
2018-07-14T07:24:01.371Z,73.34
2018-07-14T07:25:01.339Z,74.02
2018-07-14T07:26:01.347Z,73.60
2018-07-14T07:27:01.370Z,74.58
2018-07-14T07:28:01.392Z,72.83
2018-07-14T07:29:01.398Z,71.25
2018-07-14T07:30:01.404Z,71.76
2018-07-14T07:31:01.452Z,73.83
2018-07-14T07:32:01.459Z,73.08
2018-07-14T07:33:01.444Z,72.64
2018-07-14T07:34:01.497Z,72.57
2018-07-14T07:35:01.470Z,70.76
2018-07-14T07:36:01.474Z,71.50
2018-07-14T07:37:01.528Z,71.17
2018-07-14T07:38:01.497Z,72.33
2018-07-14T07:39:01.512Z,77.02
2018-07-14T07:40:01.527Z,75.21
2018-07-14T07:41:01.580Z,74.08
2018-07-14T07:42:01.572Z,74.02
2018-07-14T07:43:01.562Z,73.11
2018-07-14T07:44:01.607Z,73.89
2018-07-14T07:45:01.615Z,74.92
2018-07-14T07:46:01.612Z,75.31
2018-07-14T07:47:01.656Z,76.57
2018-07-14T07:48:01.632Z,74.35
2018-07-14T07:49:01.689Z,72.96
2018-07-14T07:50:01.665Z,71.41
2018-07-14T07:51:01.677Z,70.37
2018-07-14T07:52:01.714Z,69.29
2018-07-14T07:53:01.693Z,70.30
2018-07-14T07:54:01.773Z,70.98
2018-07-14T07:55:01.745Z,72.04
2018-07-14T07:56:01.732Z,73.69
2018-07-14T07:57:01.792Z,74.12
2018-07-14T07:58:01.782Z,73.47
2018-07-14T07:59:01.855Z,73.54
2018-07-14T08:00:01.789Z,72.37
2018-07-14T08:01:01.820Z,74.88
2018-07-14T08:02:01.816Z,77.80
2018-07-14T08:03:01.868Z,75.84
2018-07-14T08:04:01.841Z,73.47
2018-07-14T08:05:04.567Z,71.70
2018-07-14T08:06:01.872Z,70.82
2018-07-14T08:07:01.912Z,70.47
2018-07-14T08:08:01.929Z,69.17
2018-07-14T08:09:01.904Z,69.72
2018-07-14T08:10:01.979Z,69.65
2018-07-14T08:11:01.950Z,68.93
2018-07-14T08:12:01.951Z,71.14
2018-07-14T08:13:02.000Z,70.50
2018-07-14T08:14:02.026Z,71.31
2018-07-14T08:15:02.025Z,70.04
2018-07-14T08:16:02.040Z,71.72
2018-07-14T08:17:02.053Z,69.78
2018-07-14T08:18:02.050Z,68.64
2018-07-14T08:19:03.003Z,70.33
2018-07-14T08:20:02.074Z,68.13
2018-07-14T08:21:02.103Z,68.16
2018-07-14T08:22:02.102Z,68.39
2018-07-14T08:23:02.203Z,67.22
2018-07-14T08:24:02.153Z,66.73
2018-07-14T08:25:02.146Z,67.50
2018-07-14T08:26:02.175Z,70.01
2018-07-14T08:27:02.198Z,68.32
2018-07-14T08:28:02.202Z,67.83
2018-07-14T08:29:03.017Z,69.46
2018-07-14T08:30:02.242Z,68.80
2018-07-14T08:31:02.262Z,69.04
2018-07-14T08:32:02.254Z,66.89
2018-07-14T08:33:02.280Z,66.27
2018-07-14T08:34:02.284Z,65.39
2018-07-14T08:35:02.342Z,65.36
2018-07-14T08:36:02.327Z,66.08
2018-07-14T08:37:02.343Z,66.96
2018-07-14T08:38:02.419Z,67.15
2018-07-14T08:39:02.378Z,68.90
2018-07-14T08:40:02.406Z,68.48
2018-07-14T08:41:02.434Z,68.57
2018-07-14T08:42:02.469Z,70.62
2018-07-14T08:43:02.440Z,71.23
2018-07-14T08:44:02.477Z,70.65
2018-07-14T08:45:02.488Z,69.26
2018-07-14T08:46:02.506Z,69.88
2018-07-14T08:47:02.491Z,67.71
2018-07-14T08:48:02.573Z,66.37
2018-07-14T08:49:02.588Z,65.78
2018-07-14T08:50:02.554Z,64.78
2018-07-14T08:51:02.687Z,67.02
2018-07-14T08:52:02.587Z,68.03
2018-07-14T08:53:02.608Z,66.66
2018-07-14T08:54:02.615Z,66.50
2018-07-14T08:55:02.669Z,66.37
2018-07-14T08:56:02.647Z,65.66
2018-07-14T08:57:02.697Z,64.36
2018-07-14T08:58:02.733Z,65.75
2018-07-14T08:59:02.723Z,65.85
2018-07-14T09:00:02.766Z,66.56
2018-07-14T09:01:02.750Z,65.07
2018-07-14T09:02:02.768Z,66.79
2018-07-14T09:03:02.779Z,67.57
2018-07-14T09:04:02.827Z,66.41
2018-07-14T09:05:02.846Z,66.14
2018-07-14T09:06:02.826Z,65.14
2018-07-14T09:07:02.851Z,64.97
2018-07-14T09:08:02.893Z,64.19
2018-07-14T09:09:02.937Z,63.80
2018-07-14T09:10:02.900Z,64.75
2018-07-14T09:11:02.948Z,63.93
2018-07-14T09:12:02.946Z,62.66
2018-07-14T09:13:02.979Z,62.56
2018-07-14T09:14:03.017Z,63.64
2018-07-14T09:15:02.994Z,62.85
2018-07-14T09:16:03.011Z,61.29
2018-07-14T09:17:03.062Z,63.34
2018-07-14T09:18:03.041Z,64.51
2018-07-14T09:19:03.085Z,65.20
2018-07-14T09:20:03.107Z,64.29
2018-07-14T09:21:04.044Z,65.36
2018-07-14T09:22:03.139Z,64.90
2018-07-14T09:23:03.137Z,65.00
2018-07-14T09:24:03.157Z,63.87
2018-07-14T09:25:03.263Z,63.28
2018-07-14T09:26:03.206Z,63.77
2018-07-14T09:27:03.220Z,63.02
2018-07-14T09:28:03.313Z,62.79
2018-07-14T09:29:03.258Z,63.08
2018-07-14T09:30:03.286Z,62.95
2018-07-14T09:31:03.305Z,62.62
2018-07-14T09:32:03.361Z,62.76
2018-07-14T09:33:03.347Z,63.41
2018-07-14T09:34:03.368Z,63.64
2018-07-14T09:35:03.417Z,63.05
2018-07-14T09:36:03.426Z,62.76
2018-07-14T09:37:03.417Z,62.07
2018-07-14T09:38:03.543Z,62.10
2018-07-14T09:39:03.462Z,62.10
2018-07-14T09:40:03.528Z,62.56
2018-07-14T09:41:03.506Z,63.77
2018-07-14T09:42:03.538Z,65.10
2018-07-14T09:43:03.558Z,65.07
2018-07-14T09:44:03.609Z,64.39
2018-07-14T09:45:03.569Z,63.67
2018-07-14T09:46:03.634Z,63.21
2018-07-14T09:47:03.655Z,64.03
2018-07-14T09:48:03.645Z,64.09
2018-07-14T09:50:35.846Z,62.76
2018-07-14T09:51:36.965Z,63.90
2018-07-14T09:52:35.863Z,63.41
2018-07-14T09:53:35.895Z,63.64
2018-07-14T09:54:35.877Z,62.10
2018-07-14T09:55:35.915Z,63.05
2018-07-14T09:56:35.926Z,63.93
2018-07-14T09:57:35.931Z,65.59
2018-07-14T09:58:35.969Z,64.48
2018-07-14T09:59:35.982Z,65.66
2018-07-14T10:00:36.030Z,66.02
2018-07-14T10:01:36.021Z,66.86
2018-07-14T10:02:36.036Z,66.05
2018-07-14T10:03:36.138Z,65.04
2018-07-14T10:04:36.072Z,63.64
2018-07-14T10:05:36.119Z,62.92
2018-07-14T10:06:36.188Z,62.76
2018-07-14T10:07:36.177Z,64.97
2018-07-14T10:08:36.164Z,65.23
2018-07-14T10:09:36.180Z,64.84
2018-07-14T10:10:36.255Z,62.76
2018-07-14T10:11:36.237Z,62.46
2018-07-14T10:12:36.282Z,62.13
2018-07-14T10:13:36.776Z,61.83
2018-07-14T10:14:36.303Z,60.89
2018-07-14T10:15:36.368Z,60.72
2018-07-14T10:18:08.566Z,60.30
2018-07-14T10:19:08.499Z,60.41
2018-07-14T10:20:08.559Z,61.94
2018-07-14T10:21:08.552Z,62.66
2018-07-14T10:22:08.595Z,63.67
2018-07-14T10:23:08.607Z,63.60
2018-07-14T10:24:08.609Z,63.70
2018-07-14T10:25:08.691Z,65.20
2018-07-14T10:26:08.661Z,63.70
2018-07-14T10:27:08.687Z,63.67
2018-07-14T10:28:08.687Z,63.51
2018-07-14T10:29:08.797Z,62.10
2018-07-14T10:30:08.727Z,61.74
2018-07-14T10:31:08.779Z,61.90
2018-07-14T10:32:08.776Z,61.74
2018-07-14T10:33:08.822Z,61.28
2018-07-14T10:34:09.462Z,60.79
2018-07-14T10:35:08.826Z,61.38
2018-07-14T10:36:08.911Z,60.27
2018-07-14T10:37:08.883Z,60.76
2018-07-14T10:38:08.896Z,61.29
2018-07-14T10:39:09.037Z,63.96
2018-07-14T10:40:08.979Z,62.79
2018-07-14T10:41:08.952Z,65.30
2018-07-14T10:42:09.028Z,63.54
2018-07-14T10:43:08.984Z,64.09
2018-07-14T10:44:09.036Z,62.79
2018-07-14T10:45:09.052Z,65.95
2018-07-14T10:46:09.055Z,65.88
2018-07-14T10:47:09.061Z,64.19
2018-07-14T10:48:09.078Z,62.70
2018-07-14T10:49:09.106Z,64.84
2018-07-14T10:50:09.140Z,65.33
2018-07-14T10:51:09.173Z,64.65
2018-07-14T10:52:09.201Z,64.29
2018-07-14T10:53:09.169Z,65.98
2018-07-14T10:54:09.313Z,67.74
2018-07-14T10:55:09.219Z,68.23
2018-07-14T10:56:09.237Z,68.23
2018-07-14T10:57:09.267Z,69.46
2018-07-14T10:58:09.285Z,68.58
2018-07-14T10:59:09.299Z,69.75
2018-07-14T11:00:09.283Z,70.23
2018-07-14T11:01:09.307Z,71.59
2018-07-14T11:02:09.316Z,72.02
2018-07-14T11:03:09.379Z,70.81
2018-07-14T11:04:09.349Z,72.31
2018-07-14T11:05:09.402Z,71.50
2018-07-14T11:06:09.443Z,72.14
2018-07-14T11:07:09.394Z,72.72
2018-07-14T11:08:09.408Z,72.72
2018-07-14T11:09:09.451Z,73.85
2018-07-14T11:10:09.425Z,73.82
2018-07-14T11:11:09.462Z,74.44
2018-07-14T11:12:09.479Z,73.50
2018-07-14T11:13:09.528Z,73.21
2018-07-14T11:14:09.513Z,72.82
2018-07-14T11:15:09.486Z,73.79
2018-07-14T11:16:09.506Z,73.18
2018-07-14T11:17:09.545Z,73.27
2018-07-14T11:18:09.573Z,73.50
2018-07-14T11:19:10.480Z,73.05
2018-07-14T11:20:09.552Z,72.56
2018-07-14T11:21:09.587Z,71.40
2018-07-14T11:22:09.594Z,72.89
2018-07-14T11:23:09.605Z,72.41
2018-07-14T11:24:09.616Z,69.55
2018-07-14T11:25:09.679Z,69.42
2018-07-14T11:26:09.622Z,72.59
2018-07-14T11:27:09.637Z,72.82
2018-07-14T11:28:09.638Z,73.27
2018-07-14T11:29:09.760Z,74.63
2018-07-14T11:30:09.668Z,75.85
2018-07-14T11:31:09.667Z,75.18
2018-07-14T11:32:09.683Z,75.27
2018-07-14T11:33:09.687Z,75.37
2018-07-14T11:34:09.702Z,75.08
2018-07-14T11:35:09.729Z,74.98
2018-07-14T11:36:09.729Z,74.86
2018-07-14T11:37:09.728Z,73.79
2018-07-14T11:38:09.781Z,73.24
2018-07-14T11:39:10.503Z,72.33
2018-07-14T11:40:09.760Z,72.82
2018-07-14T11:41:09.766Z,72.43
2018-07-14T11:42:09.832Z,72.27
2018-07-14T11:43:09.786Z,71.59
2018-07-14T11:44:09.837Z,70.65
2018-07-14T11:45:09.806Z,70.56
2018-07-14T11:46:09.823Z,70.81
2018-07-14T11:47:09.868Z,70.65
2018-07-14T11:48:09.830Z,70.52
2018-07-14T11:49:10.500Z,71.01
2018-07-14T11:50:09.852Z,71.46
2018-07-14T11:51:09.870Z,72.66
2018-07-14T11:52:09.884Z,72.66
2018-07-14T11:53:09.883Z,71.59
2018-07-14T11:54:09.959Z,71.20
2018-07-14T11:55:09.915Z,73.18
2018-07-14T11:56:09.932Z,71.23
2018-07-14T11:57:09.941Z,71.17
2018-07-14T11:58:09.926Z,72.59
2018-07-14T11:59:09.945Z,73.52
2018-07-14T12:00:09.955Z,73.97
2018-07-14T12:01:09.951Z,74.75
2018-07-14T12:02:09.966Z,75.49
2018-07-14T12:03:09.983Z,77.82
2018-07-14T12:04:10.009Z,77.59
2018-07-14T12:05:09.996Z,77.57
2018-07-14T12:06:10.016Z,76.34
2018-07-14T12:07:10.057Z,75.15
2018-07-14T12:08:10.018Z,72.63
2018-07-14T12:09:10.030Z,73.54
2018-07-14T12:10:10.052Z,71.69
2018-07-14T12:11:10.043Z,70.58
2018-07-14T12:12:10.052Z,72.45
2018-07-14T12:13:10.061Z,74.40
2018-07-14T12:14:10.194Z,75.27
2018-07-14T12:15:10.086Z,74.50
2018-07-14T12:16:10.107Z,74.98
2018-07-14T12:17:10.105Z,74.60
2018-07-14T12:18:10.123Z,74.27
2018-07-14T12:19:10.184Z,75.62
2018-07-14T12:20:10.154Z,77.04
2018-07-14T12:21:10.137Z,76.27
2018-07-14T12:22:10.146Z,76.72
2018-07-14T12:23:10.148Z,77.72
2018-07-14T12:24:11.021Z,75.34
2018-07-14T12:25:10.168Z,73.82
2018-07-14T12:26:10.200Z,73.95
2018-07-14T12:27:10.204Z,74.92
2018-07-14T12:28:10.190Z,73.08
2018-07-14T12:29:10.206Z,73.62
2018-07-14T12:30:10.278Z,74.50
2018-07-14T12:31:10.213Z,74.56
2018-07-14T12:32:10.224Z,74.27
2018-07-14T12:33:10.234Z,75.40
2018-07-14T12:34:10.241Z,75.49
2018-07-14T12:35:10.264Z,76.37
2018-07-14T12:36:10.255Z,75.34
2018-07-14T12:37:10.287Z,74.40
2018-07-14T12:38:10.316Z,74.50
2018-07-14T12:39:10.277Z,73.46
2018-07-14T12:40:10.308Z,72.69
2018-07-14T12:41:10.294Z,69.48
2018-07-14T12:42:10.323Z,70.97
2018-07-14T12:43:10.382Z,69.87
2018-07-14T12:44:10.338Z,69.87
2018-07-14T12:45:10.332Z,71.72
2018-07-14T12:46:10.345Z,71.13
2018-07-14T12:47:11.035Z,70.65
2018-07-14T12:48:10.372Z,71.13
2018-07-14T12:49:10.359Z,72.39
2018-07-14T12:50:10.365Z,71.52
2018-07-14T12:51:10.376Z,71.13
2018-07-14T12:52:10.501Z,70.75
2018-07-14T12:53:10.410Z,69.77
2018-07-14T12:54:10.417Z,70.94
2018-07-14T12:55:10.401Z,71.42
2018-07-14T12:56:10.421Z,71.56
2018-07-14T12:57:10.456Z,70.75
2018-07-14T12:58:10.427Z,71.52